aviador You're here:

LFOA Decoded Metar

AVORD in FRANCE
Report Time2018-07-18 20:00:00
UTC Time2018-07-18 20:11:35
Flight Rules vfr VFR
WindVRB at 03 kt
Visibility9999 m
Phenomena:N/A
Clouds:N/A
Expected CloudBase > 5,200 ft AGL from Temp-Dew spread
CeilingNone
Temp24°C (ISA +10)
Dew Point11°C (44% RH)
AAT23.2°C
QNH1016 hPa
Density Alt1,844 ft
Elevation587 ft
Report Wrong Elevation
Raw Report
METAR LFOA 182000Z AUTO VRB03KT CAVOK 24/11 Q1016=

Extra information for LFOA:More info

Metar Taf Metar & Taf Last 4 Metars F.Rules Stats Wind Profile Meteogram Temp Stats Airport Information Weather charts Add Link Nearby VenuesMetar ALERT Operation Metar Decoded Social comments